Time;durP1;ratioP1;P1;durP2;ratioP2;P2;SDS_P1;SDS_P2;PMS_P1;PMS_P2;Temp;Humidity;BMP_temperature;BMP_pressure;BME280_temperature;BME280_humidity;BME280_pressure;Samples;Min_cycle;Max_cycle;Signal;HPM_P1;HPM_P2
2023/06/10 00:00:42;;;;;;;9.57;8.77;;;18.60;99.90;;;;;;4986958;28;21218;-68
2023/06/10 00:03:09;;;;;;;11.03;10.23;;;18.60;99.90;;;;;;4995078;28;20438;-68
2023/06/10 00:05:35;;;;;;;10.50;9.73;;;18.50;99.90;;;;;;4994887;28;20246;-68
2023/06/10 00:08:06;;;;;;;10.40;9.63;;;18.40;99.90;;;;;;4995246;28;20427;-68
2023/06/10 00:10:36;;;;;;;10.37;9.67;;;18.30;99.90;;;;;;4994939;28;20512;-68
2023/06/10 00:13:07;;;;;;;11.03;9.93;;;18.20;99.90;;;;;;4994626;28;20447;-68
2023/06/10 00:15:33;;;;;;;10.27;9.47;;;18.20;99.90;;;;;;4993647;28;20478;-68
2023/06/10 00:18:01;;;;;;;10.57;9.87;;;18.10;99.90;;;;;;4995288;28;20429;-68
2023/06/10 00:20:26;;;;;;;10.93;10.03;;;18.10;99.90;;;;;;4994504;28;20433;-68
2023/06/10 00:22:52;;;;;;;11.00;10.17;;;18.10;99.90;;;;;;4993008;28;20470;-68
2023/06/10 00:25:18;;;;;;;11.73;10.80;;;18.10;99.90;;;;;;4993803;28;20653;-67
2023/06/10 00:27:44;;;;;;;10.80;9.97;;;18.10;99.90;;;;;;4993447;28;20187;-68
2023/06/10 00:30:10;;;;;;;11.80;10.60;;;18.00;99.90;;;;;;4991958;28;20834;-68
2023/06/10 00:32:37;;;;;;;11.43;10.53;;;18.00;99.90;;;;;;4992045;28;20972;-68
2023/06/10 00:35:03;;;;;;;12.13;11.23;;;17.90;99.90;;;;;;4993665;28;20462;-68
2023/06/10 00:37:30;;;;;;;9.80;9.10;;;17.90;99.90;;;;;;4993210;28;20439;-68
2023/06/10 00:39:55;;;;;;;10.73;9.93;;;17.80;99.90;;;;;;4987179;28;20455;-68
2023/06/10 00:42:23;;;;;;;11.13;10.23;;;17.80;99.90;;;;;;4987840;28;20482;-68
2023/06/10 00:44:50;;;;;;;10.63;9.73;;;17.80;99.90;;;;;;4974874;28;20642;-68
2023/06/10 00:47:16;;;;;;;11.20;10.50;;;17.70;99.90;;;;;;4978604;28;20561;-68
2023/06/10 00:49:42;;;;;;;11.23;10.33;;;17.70;99.90;;;;;;4993369;28;20505;-68
2023/06/10 00:52:08;;;;;;;11.00;10.10;;;17.60;99.90;;;;;;4994148;28;20443;-68
2023/06/10 00:54:34;;;;;;;11.00;10.20;;;17.60;99.90;;;;;;4993560;28;20466;-68
2023/06/10 00:57:01;;;;;;;10.33;9.57;;;17.60;99.90;;;;;;4994047;28;20924;-68
2023/06/10 00:59:31;;;;;;;11.00;10.20;;;17.60;99.90;;;;;;4993881;28;20605;-68
2023/06/10 01:02:00;;;;;;;11.53;10.10;;;17.60;99.90;;;;;;4992250;28;20461;-67
2023/06/10 01:04:26;;;;;;;10.60;9.90;;;17.60;99.90;;;;;;4991836;28;20863;-67
2023/06/10 01:07:24;;;;;;;10.60;9.80;;;17.60;99.90;;;;;;4986403;28;20415;-69
2023/06/10 01:10:05;;;;;;;11.13;10.33;;;17.60;99.90;;;;;;4974236;28;20180;-68
2023/06/10 01:12:40;;;;;;;12.07;11.17;;;17.50;99.90;;;;;;4974221;28;20447;-67
2023/06/10 01:15:07;;;;;;;12.13;11.13;;;17.50;99.90;;;;;;4974324;28;20562;-68
2023/06/10 01:17:33;;;;;;;10.97;10.17;;;17.40;99.90;;;;;;4974479;28;21010;-68
2023/06/10 01:19:59;;;;;;;11.07;10.27;;;17.40;99.90;;;;;;4990651;28;20522;-69
2023/06/10 01:22:28;;;;;;;12.93;12.00;;;17.40;99.90;;;;;;4993235;28;20211;-67
2023/06/10 01:24:58;;;;;;;11.43;10.63;;;17.30;99.90;;;;;;4993444;28;20928;-68
2023/06/10 01:27:29;;;;;;;12.23;11.30;;;17.30;99.90;;;;;;4992373;28;20422;-68
2023/06/10 01:30:11;;;;;;;12.80;11.80;;;17.20;99.90;;;;;;4993262;28;20801;-67
2023/06/10 01:32:44;;;;;;;10.93;10.13;;;17.10;99.90;;;;;;4993375;28;20439;-67
2023/06/10 01:35:10;;;;;;;12.17;11.27;;;17.10;99.90;;;;;;4992240;28;20458;-68
2023/06/10 01:37:42;;;;;;;11.53;10.63;;;17.10;99.90;;;;;;4988939;28;20474;-67
2023/06/10 01:40:09;;;;;;;10.70;9.90;;;17.10;99.90;;;;;;4986655;28;20813;-67
2023/06/10 01:42:35;;;;;;;11.80;10.93;;;17.00;99.90;;;;;;4992138;28;20457;-69
2023/06/10 01:45:01;;;;;;;11.97;10.87;;;17.10;99.90;;;;;;4993138;28;20481;-68
2023/06/10 01:47:27;;;;;;;12.40;11.50;;;17.20;99.90;;;;;;4993176;28;20426;-68
2023/06/10 01:49:52;;;;;;;11.93;11.03;;;17.10;99.90;;;;;;4987964;28;20758;-68
2023/06/10 01:52:18;;;;;;;13.77;12.67;;;17.00;99.90;;;;;;4989302;28;20202;-68
2023/06/10 01:54:43;;;;;;;13.67;12.47;;;17.00;99.90;;;;;;4992694;28;20693;-68
2023/06/10 01:57:09;;;;;;;11.57;10.60;;;16.80;99.90;;;;;;4993174;28;20632;-68
2023/06/10 01:59:36;;;;;;;11.03;10.23;;;16.70;99.90;;;;;;4992696;28;20176;-67
2023/06/10 02:02:02;;;;;;;12.27;11.37;;;16.70;99.90;;;;;;4992843;28;20439;-68
2023/06/10 02:04:27;;;;;;;11.53;10.70;;;16.70;99.90;;;;;;4992768;28;20797;-67
2023/06/10 02:06:53;;;;;;;11.20;10.30;;;16.70;99.90;;;;;;4985564;28;20666;-69
2023/06/10 02:09:18;;;;;;;11.23;10.43;;;16.70;99.90;;;;;;4988672;28;20187;-67
2023/06/10 02:11:44;;;;;;;11.20;10.17;;;16.70;99.90;;;;;;4975027;28;20206;-67
2023/06/10 02:14:09;;;;;;;11.80;11.00;;;16.80;99.90;;;;;;4992879;28;20203;-68
2023/06/10 02:16:35;;;;;;;11.97;11.00;;;16.80;99.90;;;;;;4992612;28;20179;-68
2023/06/10 02:19:00;;;;;;;12.87;10.53;;;16.70;99.90;;;;;;4992383;28;20645;-68
2023/06/10 02:21:26;;;;;;;11.33;10.43;;;16.60;99.90;;;;;;4991717;28;20211;-68
2023/06/10 02:23:51;;;;;;;12.00;11.00;;;16.50;99.90;;;;;;4978180;28;20194;-67
2023/06/10 02:26:17;;;;;;;12.03;11.20;;;16.50;99.90;;;;;;4988574;28;20171;-67
2023/06/10 02:28:44;;;;;;;11.57;10.70;;;16.50;99.90;;;;;;4992192;28;20450;-68
2023/06/10 02:31:09;;;;;;;11.13;10.23;;;16.40;99.90;;;;;;4992481;28;20517;-67
2023/06/10 02:33:39;;;;;;;12.27;11.37;;;16.40;99.90;;;;;;4992497;28;20234;-67
2023/06/10 02:36:05;;;;;;;11.83;10.93;;;16.40;99.90;;;;;;4992468;28;20964;-69
2023/06/10 02:38:31;;;;;;;11.30;10.20;;;16.30;99.90;;;;;;4991476;28;20526;-68
2023/06/10 02:40:56;;;;;;;10.93;10.03;;;16.30;99.90;;;;;;4983105;28;20443;-68
2023/06/10 02:43:22;;;;;;;11.60;10.47;;;16.30;99.90;;;;;;4991230;28;20238;-67
2023/06/10 02:45:47;;;;;;;11.60;10.50;;;16.30;99.90;;;;;;4991738;28;20179;-68
2023/06/10 02:48:13;;;;;;;10.33;9.53;;;16.40;99.90;;;;;;4989902;28;20651;-67
2023/06/10 02:50:40;;;;;;;10.90;10.00;;;16.40;99.90;;;;;;4985096;28;20819;-68
2023/06/10 02:53:05;;;;;;;10.20;9.37;;;16.30;99.90;;;;;;4992494;28;20426;-68
2023/06/10 02:55:32;;;;;;;11.33;10.40;;;16.40;99.90;;;;;;4988560;28;20968;-68
2023/06/10 02:57:57;;;;;;;10.60;9.80;;;16.30;99.90;;;;;;4992295;28;20653;-68
2023/06/10 03:00:23;;;;;;;10.47;9.60;;;16.30;99.90;;;;;;4992128;28;20429;-67
2023/06/10 03:02:49;;;;;;;11.30;10.50;;;16.30;99.90;;;;;;4991935;28;20200;-68
2023/06/10 03:05:14;;;;;;;9.70;8.90;;;16.30;99.90;;;;;;4992327;28;20175;-68
2023/06/10 03:07:40;;;;;;;11.00;10.10;;;16.20;99.90;;;;;;4992243;28;20175;-67
2023/06/10 03:10:06;;;;;;;11.37;10.50;;;16.20;99.90;;;;;;4991960;28;20172;-67
2023/06/10 03:12:32;;;;;;;10.23;9.43;;;16.20;99.90;;;;;;4983470;28;20988;-68
2023/06/10 03:14:58;;;;;;;10.10;9.40;;;16.10;99.90;;;;;;4992126;28;20493;-68
2023/06/10 03:17:23;;;;;;;9.07;8.43;;;16.10;99.90;;;;;;4992753;28;20634;-69
2023/06/10 03:19:49;;;;;;;10.47;9.57;;;16.10;99.90;;;;;;4991398;28;20203;-68
2023/06/10 03:22:16;;;;;;;9.40;8.60;;;16.10;99.90;;;;;;4995580;28;20199;-68
2023/06/10 03:24:43;;;;;;;9.90;9.10;;;16.00;99.90;;;;;;4994678;28;20188;-68
2023/06/10 03:27:10;;;;;;;9.47;8.57;;;16.10;99.90;;;;;;4988732;28;20458;-67
2023/06/10 03:29:39;;;;;;;10.00;9.20;;;16.10;99.90;;;;;;4993830;28;20788;-68
2023/06/10 03:32:05;;;;;;;9.50;8.70;;;16.10;99.90;;;;;;4995563;28;20477;-68
2023/06/10 03:34:31;;;;;;;10.20;9.50;;;16.20;99.90;;;;;;4995528;28;20466;-68
2023/06/10 03:36:57;;;;;;;9.57;8.87;;;16.20;99.90;;;;;;4995407;28;20425;-68
2023/06/10 03:39:23;;;;;;;9.80;9.10;;;16.20;99.90;;;;;;4995249;28;20163;-68
2023/06/10 03:41:49;;;;;;;9.27;8.53;;;16.20;99.90;;;;;;4994738;28;20191;-68
2023/06/10 03:44:15;;;;;;;11.30;10.30;;;16.20;99.90;;;;;;4994333;28;20493;-69
2023/06/10 03:46:40;;;;;;;10.53;9.73;;;16.20;99.90;;;;;;4987235;28;20419;-68
2023/06/10 03:49:06;;;;;;;9.50;8.70;;;16.10;99.90;;;;;;4993583;28;20663;-69
2023/06/10 03:51:31;;;;;;;10.67;9.87;;;16.10;99.90;;;;;;4994104;28;20226;-68
2023/06/10 03:53:57;;;;;;;10.27;9.57;;;16.10;99.90;;;;;;4988477;28;20692;-66
2023/06/10 03:56:22;;;;;;;10.47;9.77;;;16.10;99.90;;;;;;4990606;28;20184;-68
2023/06/10 03:58:48;;;;;;;10.40;9.50;;;16.20;99.90;;;;;;4988195;28;20191;-68
2023/06/10 04:01:14;;;;;;;10.80;9.90;;;16.20;99.90;;;;;;4994873;28;20186;-67
2023/06/10 04:03:41;;;;;;;10.33;9.50;;;16.30;99.90;;;;;;4995174;28;20629;-68
2023/06/10 04:06:07;;;;;;;10.70;9.70;;;16.40;99.90;;;;;;4995054;28;20168;-68
2023/06/10 04:08:32;;;;;;;10.10;9.30;;;16.40;99.90;;;;;;4994889;28;20842;-68
2023/06/10 04:10:58;;;;;;;10.70;9.77;;;16.70;99.90;;;;;;4986147;28;20263;-67
2023/06/10 04:13:24;;;;;;;10.23;9.43;;;16.70;99.90;;;;;;4991646;28;20673;-67
2023/06/10 04:15:49;;;;;;;10.40;9.57;;;16.90;99.90;;;;;;4994763;28;20176;-68
2023/06/10 04:18:15;;;;;;;11.40;10.47;;;16.90;99.90;;;;;;4986905;28;20676;-67
2023/06/10 04:20:41;;;;;;;9.07;8.30;;;16.80;99.90;;;;;;4993911;28;20656;-67
2023/06/10 04:23:07;;;;;;;10.77;9.87;;;17.00;99.90;;;;;;4993712;28;20446;-68
2023/06/10 04:25:32;;;;;;;11.40;10.50;;;17.10;99.90;;;;;;4993023;28;20184;-67
2023/06/10 04:27:58;;;;;;;10.57;9.77;;;17.10;99.90;;;;;;4993226;28;20212;-68
2023/06/10 04:30:23;;;;;;;10.40;9.50;;;17.30;99.90;;;;;;4992120;28;20182;-69
2023/06/10 04:32:49;;;;;;;10.27;9.47;;;17.40;99.90;;;;;;4993403;28;20628;-68
2023/06/10 04:35:15;;;;;;;10.10;9.40;;;17.50;99.90;;;;;;4993473;28;20203;-67
2023/06/10 04:37:41;;;;;;;10.80;10.00;;;17.80;99.90;;;;;;4993440;28;20186;-68
2023/06/10 04:40:08;;;;;;;10.37;9.60;;;17.90;99.90;;;;;;4992164;28;20439;-69
2023/06/10 04:42:34;;;;;;;9.87;9.07;;;18.10;99.90;;;;;;4985150;28;20184;-67
2023/06/10 04:45:00;;;;;;;10.67;9.77;;;18.20;99.90;;;;;;4992986;28;20441;-67
2023/06/10 04:47:26;;;;;;;11.30;10.40;;;18.30;99.90;;;;;;4993328;28;20423;-68
2023/06/10 04:49:52;;;;;;;10.30;9.50;;;18.40;99.90;;;;;;4993107;28;20186;-67
2023/06/10 04:52:17;;;;;;;10.20;9.47;;;18.60;99.90;;;;;;4992678;28;20462;-68
2023/06/10 04:54:43;;;;;;;9.27;8.57;;;18.80;99.90;;;;;;4991692;28;20550;-68
2023/06/10 04:57:11;;;;;;;10.67;9.80;;;18.90;99.90;;;;;;4991776;28;20545;-67
2023/06/10 04:59:38;;;;;;;9.07;8.17;;;19.00;99.90;;;;;;4984311;28;20198;-67
2023/06/10 05:02:04;;;;;;;9.87;9.17;;;19.20;99.90;;;;;;4992972;28;21054;-68
2023/06/10 05:04:30;;;;;;;9.73;9.03;;;19.30;99.90;;;;;;4993008;28;20449;-68
2023/06/10 05:06:56;;;;;;;9.63;8.80;;;19.40;99.90;;;;;;4993043;28;20453;-68
2023/06/10 05:09:21;;;;;;;9.50;8.60;;;19.50;99.90;;;;;;4992680;28;20187;-67
2023/06/10 05:11:47;;;;;;;10.30;9.50;;;19.70;99.90;;;;;;4992950;28;20195;-68
2023/06/10 05:14:12;;;;;;;9.57;8.77;;;19.80;99.90;;;;;;4991951;28;20207;-68
2023/06/10 05:16:38;;;;;;;9.73;9.03;;;19.80;99.90;;;;;;4992977;28;20715;-67
2023/06/10 05:19:04;;;;;;;9.60;8.90;;;19.90;99.90;;;;;;4992370;28;20207;-69
2023/06/10 05:21:30;;;;;;;9.33;8.43;;;20.10;99.90;;;;;;4958048;28;1023433;-68
2023/06/10 05:23:55;;;;;;;9.03;8.33;;;20.10;99.90;;;;;;4993610;28;20179;-68
2023/06/10 05:26:21;;;;;;;8.83;8.23;;;20.30;99.90;;;;;;4993526;28;20236;-68
2023/06/10 05:28:47;;;;;;;8.50;7.93;;;20.50;99.90;;;;;;4992325;28;20234;-69
2023/06/10 05:31:13;;;;;;;8.83;8.23;;;20.70;99.90;;;;;;4993311;28;20202;-68
2023/06/10 05:33:39;;;;;;;8.50;7.97;;;20.70;99.90;;;;;;4993372;28;20458;-68
2023/06/10 05:36:05;;;;;;;12.83;8.10;;;20.80;99.90;;;;;;4993395;28;20542;-68
2023/06/10 05:38:31;;;;;;;9.60;8.63;;;20.90;99.90;;;;;;4993175;28;20429;-68
2023/06/10 05:40:56;;;;;;;8.80;8.10;;;21.00;99.90;;;;;;4993122;28;20414;-68
2023/06/10 05:43:22;;;;;;;8.03;7.33;;;21.20;99.90;;;;;;4993229;28;20246;-68
2023/06/10 05:45:48;;;;;;;9.20;8.40;;;21.30;99.90;;;;;;4991750;28;20203;-69
2023/06/10 05:48:13;;;;;;;8.83;8.13;;;21.40;99.90;;;;;;4984825;28;20188;-68
2023/06/10 05:50:42;;;;;;;8.80;8.20;;;21.60;99.90;;;;;;4993167;28;20183;-68
2023/06/10 05:53:14;;;;;;;9.03;8.33;;;21.70;99.90;;;;;;4992879;28;20294;-68
2023/06/10 05:55:41;;;;;;;7.60;7.10;;;21.90;99.90;;;;;;4992906;28;20462;-67
2023/06/10 05:58:07;;;;;;;8.50;7.90;;;22.00;99.90;;;;;;4992001;28;20443;-68
2023/06/10 06:00:32;;;;;;;9.17;8.57;;;22.20;99.90;;;;;;4991472;28;20800;-69
2023/06/10 06:02:58;;;;;;;8.33;7.63;;;22.10;99.90;;;;;;4989148;28;20225;-69
2023/06/10 06:05:24;;;;;;;8.23;7.53;;;22.20;99.90;;;;;;4989119;28;20636;-69
2023/06/10 06:07:50;;;;;;;10.20;7.87;;;22.10;99.90;;;;;;4991640;28;20445;-68
2023/06/10 06:10:17;;;;;;;8.43;7.63;;;22.30;99.90;;;;;;4991204;28;20541;-69
2023/06/10 06:12:42;;;;;;;8.10;7.50;;;22.50;99.90;;;;;;4985840;28;20294;-69
2023/06/10 06:15:09;;;;;;;8.40;7.80;;;22.70;99.90;;;;;;4991918;28;20541;-68
2023/06/10 06:17:34;;;;;;;9.67;8.70;;;22.80;99.90;;;;;;4991396;28;20323;-68
2023/06/10 06:20:00;;;;;;;7.67;7.10;;;22.90;99.90;;;;;;4990050;28;20525;-69
2023/06/10 06:22:25;;;;;;;8.33;7.73;;;23.00;99.90;;;;;;4989191;28;20219;-68
2023/06/10 06:24:51;;;;;;;8.00;7.13;;;23.10;99.90;;;;;;4991925;28;20190;-69
2023/06/10 06:27:16;;;;;;;8.77;8.07;;;23.20;99.90;;;;;;4991764;28;20322;-68
2023/06/10 06:29:42;;;;;;;8.07;7.30;;;23.30;99.90;;;;;;4991345;28;20265;-69
2023/06/10 06:32:08;;;;;;;8.30;7.70;;;23.40;99.90;;;;;;4991015;28;20622;-68
2023/06/10 06:34:33;;;;;;;9.00;8.27;;;23.40;99.90;;;;;;4988403;28;20624;-69
2023/06/10 06:36:59;;;;;;;8.50;7.70;;;23.20;99.90;;;;;;4990321;28;20226;-68
2023/06/10 06:39:24;;;;;;;7.90;7.37;;;23.40;99.90;;;;;;4992119;28;20180;-68
2023/06/10 06:41:50;;;;;;;7.93;7.40;;;23.50;99.90;;;;;;4992305;28;20282;-68
2023/06/10 06:44:15;;;;;;;8.17;7.47;;;23.50;99.90;;;;;;4992140;28;20194;-68
2023/06/10 06:46:41;;;;;;;7.20;6.63;;;23.60;99.90;;;;;;4992491;28;20210;-69
2023/06/10 06:49:06;;;;;;;8.10;7.50;;;23.80;99.90;;;;;;4991832;28;20182;-69
2023/06/10 06:51:32;;;;;;;8.47;7.83;;;24.00;99.90;;;;;;4991758;28;20210;-69
2023/06/10 06:53:58;;;;;;;8.20;7.60;;;24.20;99.90;;;;;;4995461;28;20191;-69
2023/06/10 06:56:24;;;;;;;7.50;6.80;;;24.30;99.90;;;;;;4996424;28;20223;-69
2023/06/10 06:58:50;;;;;;;7.30;6.80;;;24.40;99.90;;;;;;4987160;28;20800;-69
2023/06/10 07:01:15;;;;;;;7.93;7.43;;;24.50;99.90;;;;;;4995912;28;20476;-69
2023/06/10 07:03:41;;;;;;;7.33;6.73;;;24.60;99.90;;;;;;4996090;28;20233;-68
2023/06/10 07:06:07;;;;;;;7.10;6.63;;;24.70;99.90;;;;;;4986842;28;20202;-70
2023/06/10 07:08:32;;;;;;;7.70;7.10;;;24.70;99.70;;;;;;4987625;28;20554;-70
2023/06/10 07:10:58;;;;;;;7.73;7.13;;;24.70;99.70;;;;;;4995952;28;20171;-68
2023/06/10 07:13:23;;;;;;;7.13;6.53;;;24.70;99.80;;;;;;4996165;28;20237;-70
2023/06/10 07:15:49;;;;;;;6.70;6.20;;;24.90;99.50;;;;;;4996266;28;20294;-70
2023/06/10 07:18:16;;;;;;;8.30;7.70;;;24.80;98.80;;;;;;4995311;28;20193;-69
2023/06/10 07:20:41;;;;;;;8.20;7.47;;;24.90;98.80;;;;;;4995913;28;20175;-72
2023/06/10 07:23:07;;;;;;;7.20;6.63;;;25.10;98.40;;;;;;4993377;28;20988;-71
2023/06/10 07:25:32;;;;;;;7.30;6.80;;;25.20;98.20;;;;;;4979749;28;20666;-70
2023/06/10 07:27:58;;;;;;;7.07;6.43;;;25.30;97.60;;;;;;4995752;28;20222;-72
2023/06/10 07:30:23;;;;;;;7.03;6.53;;;25.00;97.70;;;;;;4995726;28;20218;-71
2023/06/10 07:32:49;;;;;;;7.13;6.63;;;25.10;97.60;;;;;;4995772;28;20254;-72
2023/06/10 07:35:14;;;;;;;6.90;6.50;;;25.10;97.70;;;;;;4994042;28;20225;-69
2023/06/10 07:37:40;;;;;;;7.00;6.50;;;25.00;97.50;;;;;;4988127;28;20645;-70
2023/06/10 07:40:06;;;;;;;7.30;6.70;;;25.00;97.80;;;;;;4990372;28;20188;-69
2023/06/10 07:42:34;;;;;;;6.97;6.43;;;24.80;97.80;;;;;;4992146;28;20585;-70
2023/06/10 07:44:59;;;;;;;7.83;7.33;;;24.80;97.80;;;;;;4995216;28;20481;-70
2023/06/10 07:47:25;;;;;;;7.07;6.47;;;24.70;97.80;;;;;;4995400;28;20986;-71
2023/06/10 07:49:50;;;;;;;7.23;6.73;;;24.80;97.30;;;;;;4995108;28;20195;-70
2023/06/10 07:52:16;;;;;;;6.43;6.03;;;25.00;97.80;;;;;;4994933;28;20699;-69
2023/06/10 07:54:41;;;;;;;6.73;6.23;;;24.80;97.20;;;;;;4995000;28;20281;-70
2023/06/10 07:57:07;;;;;;;6.70;6.20;;;25.00;97.30;;;;;;4994992;28;20234;-69
2023/06/10 07:59:33;;;;;;;7.93;7.23;;;25.20;96.30;;;;;;4988937;28;20168;-70
2023/06/10 08:01:58;;;;;;;6.57;6.07;;;25.50;96.60;;;;;;4981608;28;20560;-70
2023/06/10 08:04:24;;;;;;;8.37;7.77;;;25.50;96.40;;;;;;4994979;28;20426;-70
2023/06/10 08:06:50;;;;;;;7.87;7.27;;;25.70;95.80;;;;;;4995042;28;20199;-70
2023/06/10 08:09:16;;;;;;;7.47;6.97;;;25.70;95.90;;;;;;4994309;28;20188;-69
2023/06/10 08:11:41;;;;;;;7.93;7.33;;;25.60;96.20;;;;;;4994285;28;20607;-69
2023/06/10 08:14:07;;;;;;;7.83;7.33;;;25.70;95.50;;;;;;4986802;28;20472;-70
2023/06/10 08:16:32;;;;;;;8.30;7.70;;;25.70;95.60;;;;;;4994954;28;20175;-69
2023/06/10 08:18:58;;;;;;;8.20;7.70;;;25.60;96.00;;;;;;4994487;28;20172;-69
2023/06/10 08:21:23;;;;;;;8.20;7.50;;;25.60;96.40;;;;;;4994697;28;20196;-69
2023/06/10 08:23:53;;;;;;;8.43;7.77;;;25.50;95.70;;;;;;4994854;28;20543;-69
2023/06/10 08:26:18;;;;;;;7.90;7.30;;;25.80;95.60;;;;;;4995180;28;20195;-70
2023/06/10 08:28:44;;;;;;;7.87;7.17;;;25.90;95.40;;;;;;4993975;28;20796;-70
2023/06/10 08:31:09;;;;;;;7.50;6.90;;;26.30;94.60;;;;;;4993757;28;20300;-70
2023/06/10 08:33:35;;;;;;;7.37;6.77;;;26.70;94.40;;;;;;4994553;28;20168;-70
2023/06/10 08:36:00;;;;;;;7.80;7.30;;;27.10;93.40;;;;;;4993370;28;20179;-70
2023/06/10 08:38:26;;;;;;;8.17;7.57;;;27.20;92.70;;;;;;4985613;28;20254;-70
2023/06/10 08:40:56;;;;;;;9.10;8.23;;;27.20;92.40;;;;;;4992666;28;21114;-70
2023/06/10 08:43:32;;;;;;;8.13;7.53;;;27.30;92.30;;;;;;4993697;28;20223;-70
2023/06/10 08:46:01;;;;;;;7.80;7.20;;;27.50;91.10;;;;;;4987807;28;20481;-68
2023/06/10 08:48:30;;;;;;;9.07;8.27;;;27.40;91.40;;;;;;4992329;28;20438;-70
2023/06/10 08:50:57;;;;;;;9.23;8.47;;;27.60;91.60;;;;;;4992648;28;20524;-70
2023/06/10 08:53:25;;;;;;;7.97;7.47;;;27.80;90.80;;;;;;4994135;28;20473;-70
2023/06/10 08:55:52;;;;;;;7.60;7.00;;;28.00;89.90;;;;;;4994104;28;20466;-70
2023/06/10 08:58:19;;;;;;;8.70;8.00;;;28.10;88.30;;;;;;4993703;28;20423;-70
2023/06/10 09:00:45;;;;;;;7.57;7.03;;;28.30;85.70;;;;;;4993264;28;20433;-70
2023/06/10 09:03:11;;;;;;;7.57;7.07;;;28.30;86.20;;;;;;4992466;28;20944;-70
2023/06/10 09:05:37;;;;;;;7.80;7.30;;;28.40;86.30;;;;;;4987873;28;20315;-72
2023/06/10 09:08:03;;;;;;;7.43;6.87;;;28.40;85.80;;;;;;4986523;28;20913;-71
2023/06/10 09:10:29;;;;;;;7.53;7.03;;;28.70;85.70;;;;;;4973782;28;20809;-69
2023/06/10 09:12:56;;;;;;;7.73;7.10;;;29.00;84.00;;;;;;4974269;28;20455;-70
2023/06/10 09:15:22;;;;;;;7.20;6.70;;;28.90;83.80;;;;;;4973931;28;20208;-70
2023/06/10 09:17:48;;;;;;;7.37;6.87;;;29.20;82.20;;;;;;4985275;28;20439;-70
2023/06/10 09:20:13;;;;;;;7.67;7.17;;;28.70;83.20;;;;;;4993559;28;20230;-70
2023/06/10 09:22:39;;;;;;;8.10;7.53;;;28.80;82.70;;;;;;4993470;28;20274;-70
2023/06/10 09:25:10;;;;;;;6.80;6.40;;;28.70;80.70;;;;;;4993657;28;20238;-71
2023/06/10 09:27:56;;;;;;;6.57;6.17;;;28.70;79.10;;;;;;4993809;28;20187;-71
2023/06/10 09:30:34;;;;;;;7.20;6.80;;;28.80;78.00;;;;;;4993262;28;20438;-71
2023/06/10 09:33:02;;;;;;;7.17;6.57;;;29.00;79.20;;;;;;4993441;28;20446;-70
2023/06/10 09:35:29;;;;;;;6.57;6.07;;;29.30;77.50;;;;;;4992077;28;20470;-70
2023/06/10 09:37:59;;;;;;;6.57;6.13;;;29.60;76.90;;;;;;4993443;28;20558;-71
2023/06/10 09:40:25;;;;;;;7.60;7.00;;;29.70;75.90;;;;;;4993155;28;20948;-70
2023/06/10 09:43:00;;;;;;;6.60;6.17;;;30.10;74.60;;;;;;4993273;28;20457;-70
2023/06/10 09:45:32;;;;;;;6.50;6.10;;;30.50;72.70;;;;;;4993248;28;20245;-69
2023/06/10 09:47:58;;;;;;;7.13;6.63;;;30.90;70.90;;;;;;4993252;28;20466;-69
2023/06/10 09:50:23;;;;;;;6.73;6.33;;;31.60;67.80;;;;;;4992118;28;20450;-71
2023/06/10 09:52:50;;;;;;;7.73;7.03;;;31.50;66.60;;;;;;4985361;28;20204;-71
2023/06/10 09:55:16;;;;;;;6.90;6.30;;;31.40;65.90;;;;;;4986968;28;20282;-71
2023/06/10 09:57:44;;;;;;;7.27;6.73;;;31.40;65.90;;;;;;4993284;28;20473;-71
2023/06/10 10:00:11;;;;;;;6.80;6.40;;;32.10;63.20;;;;;;4992577;28;20419;-70
2023/06/10 10:02:47;;;;;;;6.67;6.20;;;32.70;61.70;;;;;;4990468;28;20455;-70
2023/06/10 10:05:14;;;;;;;6.30;5.90;;;33.40;58.80;;;;;;4988028;28;20488;-70
2023/06/10 10:07:40;;;;;;;6.57;6.17;;;33.60;56.00;;;;;;4992568;28;20461;-71
2023/06/10 10:10:07;;;;;;;6.60;6.10;;;34.00;55.90;;;;;;4992745;28;20434;-70
2023/06/10 10:12:35;;;;;;;5.90;5.50;;;34.60;53.90;;;;;;4992890;28;20528;-72
2023/06/10 10:15:02;;;;;;;5.97;5.57;;;34.90;52.90;;;;;;4992831;28;20461;-70
2023/06/10 10:17:29;;;;;;;6.97;6.47;;;35.80;51.20;;;;;;4983741;28;20508;-71
2023/06/10 10:20:02;;;;;;;6.97;6.57;;;35.00;50.30;;;;;;4992541;28;20839;-70
2023/06/10 10:22:34;;;;;;;6.00;5.60;;;34.70;50.90;;;;;;4992672;28;20469;-71
2023/06/10 10:25:02;;;;;;;6.47;5.87;;;34.90;49.30;;;;;;4992557;28;20437;-70
2023/06/10 10:27:35;;;;;;;6.20;5.87;;;35.30;48.90;;;;;;4991860;28;20422;-71
2023/06/10 10:30:08;;;;;;;6.43;6.03;;;35.40;48.50;;;;;;4992451;28;20419;-71
2023/06/10 10:32:50;;;;;;;6.90;6.40;;;36.20;47.80;;;;;;4991796;28;20462;-70
2023/06/10 10:35:23;;;;;;;6.70;6.30;;;36.10;47.10;;;;;;4981250;28;20473;-70
2023/06/10 10:37:50;;;;;;;7.60;7.00;;;36.30;47.40;;;;;;4984586;28;20461;-70
2023/06/10 10:40:17;;;;;;;7.23;6.83;;;35.50;46.50;;;;;;4992292;28;20419;-71
2023/06/10 10:42:43;;;;;;;6.90;6.50;;;34.90;47.50;;;;;;4992344;28;20454;-70
2023/06/10 10:45:10;;;;;;;6.67;6.20;;;35.00;47.40;;;;;;4992551;28;21144;-71
2023/06/10 10:47:38;;;;;;;7.40;7.00;;;34.80;47.90;;;;;;4990226;28;20517;-70
2023/06/10 10:50:14;;;;;;;5.97;5.57;;;35.00;46.30;;;;;;4983370;28;20525;-70
2023/06/10 10:52:58;;;;;;;7.40;6.90;;;34.40;46.80;;;;;;4992354;28;20453;-70
2023/06/10 10:55:25;;;;;;;7.07;6.57;;;33.70;47.20;;;;;;4992446;28;20466;-70
2023/06/10 10:57:59;;;;;;;7.50;7.03;;;33.30;48.10;;;;;;4992241;28;20422;-70
2023/06/10 11:00:42;;;;;;;7.13;6.70;;;32.40;49.20;;;;;;4991989;28;20433;-70
2023/06/10 11:03:13;;;;;;;7.67;7.07;;;32.40;49.70;;;;;;4991530;28;20846;-69
2023/06/10 11:05:47;;;;;;;7.73;7.20;;;32.70;49.30;;;;;;4992147;28;20496;-70
2023/06/10 11:08:14;;;;;;;6.97;6.47;;;33.10;49.30;;;;;;4991929;28;20430;-69
2023/06/10 11:10:41;;;;;;;6.80;6.50;;;32.90;48.60;;;;;;4992651;28;20514;-70
2023/06/10 11:13:14;;;;;;;8.43;7.73;;;32.70;49.10;;;;;;4992225;28;20442;-70
2023/06/10 11:15:46;;;;;;;6.87;6.27;;;33.00;48.70;;;;;;4992190;28;20504;-70
2023/06/10 11:18:25;;;;;;;7.67;7.17;;;32.90;47.30;;;;;;4992032;28;20426;-70
2023/06/10 11:20:54;;;;;;;6.97;6.47;;;32.60;47.80;;;;;;4987672;28;20833;-70
2023/06/10 11:23:29;;;;;;;7.10;6.70;;;32.90;48.20;;;;;;4988464;28;20466;-68
2023/06/10 11:26:26;;;;;;;7.37;6.73;;;34.20;47.40;;;;;;4992311;28;20417;-69
2023/06/10 11:28:55;;;;;;;6.77;6.37;;;36.80;45.20;;;;;;4991822;28;20850;-69
2023/06/10 11:31:22;;;;;;;6.83;6.30;;;38.60;45.00;;;;;;4992016;28;20458;-69
2023/06/10 11:33:48;;;;;;;7.20;6.80;;;38.70;43.90;;;;;;4990651;28;20505;-69
2023/06/10 11:36:14;;;;;;;7.90;7.30;;;38.40;43.70;;;;;;4984000;28;20518;-70
2023/06/10 11:38:43;;;;;;;6.93;6.53;;;36.70;44.50;;;;;;4992828;28;20430;-69
2023/06/10 11:41:11;;;;;;;7.17;6.50;;;35.10;45.90;;;;;;4995569;28;20438;-68
2023/06/10 11:43:37;;;;;;;7.10;6.70;;;33.80;47.50;;;;;;4995438;28;20419;-69
2023/06/10 11:46:02;;;;;;;6.70;6.30;;;34.10;48.40;;;;;;4995490;28;20430;-69
2023/06/10 11:48:30;;;;;;;7.60;7.00;;;34.40;48.00;;;;;;4995283;28;20433;-68
2023/06/10 11:50:55;;;;;;;7.27;6.87;;;34.70;47.90;;;;;;4988950;28;20184;-70
2023/06/10 11:53:21;;;;;;;7.37;6.87;;;34.20;47.90;;;;;;4983408;28;20467;-69
2023/06/10 11:55:48;;;;;;;7.20;6.70;;;33.80;47.80;;;;;;4994929;28;20204;-67
2023/06/10 11:58:21;;;;;;;7.07;6.40;;;33.90;48.20;;;;;;4986240;28;20171;-67
2023/06/10 12:00:53;;;;;;;7.10;6.60;;;34.00;47.80;;;;;;4993899;28;20434;-67
2023/06/10 12:03:19;;;;;;;7.40;6.90;;;33.40;48.60;;;;;;4991645;28;20454;-67
2023/06/10 12:05:58;;;;;;;6.50;6.10;;;33.90;47.80;;;;;;4986434;28;20441;-67
2023/06/10 12:08:24;;;;;;;6.53;6.10;;;34.50;47.20;;;;;;4994192;28;20453;-67
2023/06/10 12:10:50;;;;;;;7.00;6.50;;;36.40;46.10;;;;;;4993584;28;20850;-67
2023/06/10 12:13:17;;;;;;;7.00;6.40;;;37.30;44.30;;;;;;4979164;28;20542;-67
2023/06/10 12:15:44;;;;;;;6.67;6.27;;;37.80;43.40;;;;;;4994690;28;20516;-68
2023/06/10 12:18:19;;;;;;;7.00;6.50;;;39.60;42.60;;;;;;4993816;28;20488;-68
2023/06/10 12:20:45;;;;;;;6.50;6.10;;;40.90;40.90;;;;;;4994709;28;20768;-68
2023/06/10 12:23:12;;;;;;;6.53;6.13;;;41.50;40.30;;;;;;4994680;28;20959;-68
2023/06/10 12:25:38;;;;;;;6.67;6.17;;;42.10;40.00;;;;;;4994673;28;20565;-68
2023/06/10 12:28:05;;;;;;;6.97;6.47;;;40.90;40.00;;;;;;4994510;28;20411;-68
2023/06/10 12:30:32;;;;;;;7.83;7.23;;;39.00;40.90;;;;;;4993695;28;20505;-68
2023/06/10 12:32:58;;;;;;;7.17;6.77;;;36.50;43.00;;;;;;4986118;28;20972;-67
2023/06/10 12:35:25;;;;;;;7.43;7.00;;;35.50;44.00;;;;;;4985344;28;20459;-68
2023/06/10 12:38:06;;;;;;;7.23;6.83;;;34.10;45.50;;;;;;4994399;28;20187;-67
2023/06/10 12:40:37;;;;;;;7.70;6.97;;;33.80;45.90;;;;;;4993934;28;20421;-67